sensor_id;sensor_type;location;lat;lon;timestamp;temperature;humidity
21167;DHT22;10741;52.272;9.580;2022-08-30T00:00:50;14.00;99.90
21167;DHT22;10741;52.272;9.580;2022-08-30T00:03:36;14.00;99.90
21167;DHT22;10741;52.272;9.580;2022-08-30T00:06:04;14.00;99.90
21167;DHT22;10741;52.272;9.580;2022-08-30T00:08:34;13.90;99.90
21167;DHT22;10741;52.272;9.580;2022-08-30T00:11:01;13.90;99.90
21167;DHT22;10741;52.272;9.580;2022-08-30T00:13:28;13.90;99.90
21167;DHT22;10741;52.272;9.580;2022-08-30T00:15:54;14.00;99.90
21167;DHT22;10741;52.272;9.580;2022-08-30T00:18:20;13.90;99.90
21167;DHT22;10741;52.272;9.580;2022-08-30T00:20:47;13.90;99.90
21167;DHT22;10741;52.272;9.580;2022-08-30T00:23:13;13.90;99.90
21167;DHT22;10741;52.272;9.580;2022-08-30T00:25:40;13.90;99.90
21167;DHT22;10741;52.272;9.580;2022-08-30T00:28:05;13.90;99.90
21167;DHT22;10741;52.272;9.580;2022-08-30T00:30:31;13.90;99.90
21167;DHT22;10741;52.272;9.580;2022-08-30T00:32:57;13.80;99.90
21167;DHT22;10741;52.272;9.580;2022-08-30T00:35:24;13.90;99.90
21167;DHT22;10741;52.272;9.580;2022-08-30T00:37:50;13.80;99.90
21167;DHT22;10741;52.272;9.580;2022-08-30T00:40:17;13.90;99.90
21167;DHT22;10741;52.272;9.580;2022-08-30T00:42:45;13.80;99.90
21167;DHT22;10741;52.272;9.580;2022-08-30T00:45:24;13.90;99.90
21167;DHT22;10741;52.272;9.580;2022-08-30T00:47:51;13.90;99.90
21167;DHT22;10741;52.272;9.580;2022-08-30T00:50:19;13.90;99.90
21167;DHT22;10741;52.272;9.580;2022-08-30T00:52:48;13.90;99.90
21167;DHT22;10741;52.272;9.580;2022-08-30T00:55:16;13.90;99.90
21167;DHT22;10741;52.272;9.580;2022-08-30T00:57:43;13.90;99.90
21167;DHT22;10741;52.272;9.580;2022-08-30T01:00:11;14.00;99.90
21167;DHT22;10741;52.272;9.580;2022-08-30T01:02:37;14.00;99.90
21167;DHT22;10741;52.272;9.580;2022-08-30T01:05:05;14.10;99.90
21167;DHT22;10741;52.272;9.580;2022-08-30T01:07:33;14.10;99.90
21167;DHT22;10741;52.272;9.580;2022-08-30T01:10:00;14.20;99.90
21167;DHT22;10741;52.272;9.580;2022-08-30T01:12:26;14.20;99.90
21167;DHT22;10741;52.272;9.580;2022-08-30T01:14:52;14.30;99.90
21167;DHT22;10741;52.272;9.580;2022-08-30T01:17:19;14.30;99.90
21167;DHT22;10741;52.272;9.580;2022-08-30T01:20:06;14.30;99.90
21167;DHT22;10741;52.272;9.580;2022-08-30T01:22:43;14.30;99.90
21167;DHT22;10741;52.272;9.580;2022-08-30T01:25:11;14.30;99.90
21167;DHT22;10741;52.272;9.580;2022-08-30T01:27:40;14.30;99.90
21167;DHT22;10741;52.272;9.580;2022-08-30T01:30:08;14.30;99.90
21167;DHT22;10741;52.272;9.580;2022-08-30T01:32:40;14.30;99.90
21167;DHT22;10741;52.272;9.580;2022-08-30T01:35:08;14.20;99.90
21167;DHT22;10741;52.272;9.580;2022-08-30T01:37:34;14.20;99.90
21167;DHT22;10741;52.272;9.580;2022-08-30T01:40:01;14.10;99.90
21167;DHT22;10741;52.272;9.580;2022-08-30T01:42:27;14.00;99.90
21167;DHT22;10741;52.272;9.580;2022-08-30T01:44:52;13.90;99.90
21167;DHT22;10741;52.272;9.580;2022-08-30T01:47:18;13.90;99.90
21167;DHT22;10741;52.272;9.580;2022-08-30T01:49:46;13.90;99.90
21167;DHT22;10741;52.272;9.580;2022-08-30T01:52:13;13.80;99.90
21167;DHT22;10741;52.272;9.580;2022-08-30T01:54:41;13.80;99.90
21167;DHT22;10741;52.272;9.580;2022-08-30T01:57:13;13.70;99.90
21167;DHT22;10741;52.272;9.580;2022-08-30T01:59:40;13.60;99.90
21167;DHT22;10741;52.272;9.580;2022-08-30T02:02:07;13.60;99.90
21167;DHT22;10741;52.272;9.580;2022-08-30T02:04:34;13.60;99.90
21167;DHT22;10741;52.272;9.580;2022-08-30T02:07:02;13.60;99.90
21167;DHT22;10741;52.272;9.580;2022-08-30T02:09:28;13.60;99.90
21167;DHT22;10741;52.272;9.580;2022-08-30T02:11:53;13.60;99.90
21167;DHT22;10741;52.272;9.580;2022-08-30T02:14:19;13.70;99.90
21167;DHT22;10741;52.272;9.580;2022-08-30T02:16:45;13.70;99.90
21167;DHT22;10741;52.272;9.580;2022-08-30T02:19:11;13.80;99.90
21167;DHT22;10741;52.272;9.580;2022-08-30T02:21:37;13.80;99.90
21167;DHT22;10741;52.272;9.580;2022-08-30T02:24:03;13.90;99.90
21167;DHT22;10741;52.272;9.580;2022-08-30T02:26:29;13.90;99.90
21167;DHT22;10741;52.272;9.580;2022-08-30T02:28:54;13.90;99.90
21167;DHT22;10741;52.272;9.580;2022-08-30T02:31:21;13.90;99.90
21167;DHT22;10741;52.272;9.580;2022-08-30T02:33:51;14.00;99.90
21167;DHT22;10741;52.272;9.580;2022-08-30T02:36:18;14.00;99.90
21167;DHT22;10741;52.272;9.580;2022-08-30T02:38:45;14.10;99.90
21167;DHT22;10741;52.272;9.580;2022-08-30T02:41:11;14.10;99.90
21167;DHT22;10741;52.272;9.580;2022-08-30T02:43:37;14.20;99.90
21167;DHT22;10741;52.272;9.580;2022-08-30T02:46:03;14.20;99.90
21167;DHT22;10741;52.272;9.580;2022-08-30T02:48:29;14.30;99.90
21167;DHT22;10741;52.272;9.580;2022-08-30T02:50:55;14.30;99.90
21167;DHT22;10741;52.272;9.580;2022-08-30T02:53:21;14.40;99.90
21167;DHT22;10741;52.272;9.580;2022-08-30T02:55:48;14.40;99.90
21167;DHT22;10741;52.272;9.580;2022-08-30T02:58:13;14.50;99.90
21167;DHT22;10741;52.272;9.580;2022-08-30T03:00:39;14.50;99.90
21167;DHT22;10741;52.272;9.580;2022-08-30T03:03:06;14.60;99.90
21167;DHT22;10741;52.272;9.580;2022-08-30T03:05:32;14.60;99.90
21167;DHT22;10741;52.272;9.580;2022-08-30T03:07:58;14.60;99.90
21167;DHT22;10741;52.272;9.580;2022-08-30T03:10:25;14.60;99.90
21167;DHT22;10741;52.272;9.580;2022-08-30T03:12:53;14.70;99.90
21167;DHT22;10741;52.272;9.580;2022-08-30T03:15:19;14.80;99.90
21167;DHT22;10741;52.272;9.580;2022-08-30T03:17:45;14.80;99.90
21167;DHT22;10741;52.272;9.580;2022-08-30T03:20:11;14.80;99.90
21167;DHT22;10741;52.272;9.580;2022-08-30T03:22:37;14.80;99.90
21167;DHT22;10741;52.272;9.580;2022-08-30T03:25:04;14.90;99.90
21167;DHT22;10741;52.272;9.580;2022-08-30T03:27:30;14.90;99.90
21167;DHT22;10741;52.272;9.580;2022-08-30T03:29:56;14.90;99.90
21167;DHT22;10741;52.272;9.580;2022-08-30T03:32:22;14.90;99.90
21167;DHT22;10741;52.272;9.580;2022-08-30T03:34:48;14.90;99.90
21167;DHT22;10741;52.272;9.580;2022-08-30T03:37:15;14.90;99.90
21167;DHT22;10741;52.272;9.580;2022-08-30T03:39:41;14.90;99.90
21167;DHT22;10741;52.272;9.580;2022-08-30T03:42:07;14.90;99.90
21167;DHT22;10741;52.272;9.580;2022-08-30T03:44:33;14.90;99.90
21167;DHT22;10741;52.272;9.580;2022-08-30T03:46:58;14.90;99.90
21167;DHT22;10741;52.272;9.580;2022-08-30T03:49:25;14.90;99.90
21167;DHT22;10741;52.272;9.580;2022-08-30T03:51:50;14.80;99.90
21167;DHT22;10741;52.272;9.580;2022-08-30T03:54:16;14.80;99.90
21167;DHT22;10741;52.272;9.580;2022-08-30T03:56:42;14.80;99.90
21167;DHT22;10741;52.272;9.580;2022-08-30T03:59:08;14.80;99.90
21167;DHT22;10741;52.272;9.580;2022-08-30T04:01:33;14.80;99.90
21167;DHT22;10741;52.272;9.580;2022-08-30T04:03:59;14.80;99.90
21167;DHT22;10741;52.272;9.580;2022-08-30T04:06:25;14.80;99.90
21167;DHT22;10741;52.272;9.580;2022-08-30T04:08:52;14.80;99.90
21167;DHT22;10741;52.272;9.580;2022-08-30T04:11:17;14.80;99.90
21167;DHT22;10741;52.272;9.580;2022-08-30T04:13:45;14.80;99.90
21167;DHT22;10741;52.272;9.580;2022-08-30T04:16:11;14.80;99.90
21167;DHT22;10741;52.272;9.580;2022-08-30T04:18:37;14.80;99.90
21167;DHT22;10741;52.272;9.580;2022-08-30T04:21:03;14.80;99.90
21167;DHT22;10741;52.272;9.580;2022-08-30T04:23:30;14.80;99.90
21167;DHT22;10741;52.272;9.580;2022-08-30T04:25:56;14.80;99.90
21167;DHT22;10741;52.272;9.580;2022-08-30T04:28:22;14.80;99.90
21167;DHT22;10741;52.272;9.580;2022-08-30T04:30:48;14.80;99.90
21167;DHT22;10741;52.272;9.580;2022-08-30T04:33:14;14.80;99.90
21167;DHT22;10741;52.272;9.580;2022-08-30T04:35:42;14.70;99.90
21167;DHT22;10741;52.272;9.580;2022-08-30T04:38:09;14.70;99.90
21167;DHT22;10741;52.272;9.580;2022-08-30T04:40:35;14.70;99.90
21167;DHT22;10741;52.272;9.580;2022-08-30T04:43:02;14.80;99.90
21167;DHT22;10741;52.272;9.580;2022-08-30T04:45:28;14.80;99.90
21167;DHT22;10741;52.272;9.580;2022-08-30T04:47:54;14.70;99.90
21167;DHT22;10741;52.272;9.580;2022-08-30T04:50:20;14.70;99.90
21167;DHT22;10741;52.272;9.580;2022-08-30T04:52:46;14.70;99.90
21167;DHT22;10741;52.272;9.580;2022-08-30T04:55:13;14.80;99.90
21167;DHT22;10741;52.272;9.580;2022-08-30T04:57:39;14.80;99.90
21167;DHT22;10741;52.272;9.580;2022-08-30T05:00:07;14.80;99.90
21167;DHT22;10741;52.272;9.580;2022-08-30T05:02:33;14.80;99.90
21167;DHT22;10741;52.272;9.580;2022-08-30T05:05:00;14.80;99.90
21167;DHT22;10741;52.272;9.580;2022-08-30T05:07:44;14.90;99.90
21167;DHT22;10741;52.272;9.580;2022-08-30T05:10:12;14.90;99.90
21167;DHT22;10741;52.272;9.580;2022-08-30T05:12:39;14.90;99.90
21167;DHT22;10741;52.272;9.580;2022-08-30T05:15:06;14.90;99.90
21167;DHT22;10741;52.272;9.580;2022-08-30T05:17:32;14.90;99.90
21167;DHT22;10741;52.272;9.580;2022-08-30T05:20:00;14.90;99.90
21167;DHT22;10741;52.272;9.580;2022-08-30T05:22:26;15.00;99.90
21167;DHT22;10741;52.272;9.580;2022-08-30T05:24:52;15.00;99.90
21167;DHT22;10741;52.272;9.580;2022-08-30T05:27:18;15.00;99.90
21167;DHT22;10741;52.272;9.580;2022-08-30T05:29:45;15.00;99.90
21167;DHT22;10741;52.272;9.580;2022-08-30T05:32:11;15.00;99.90
21167;DHT22;10741;52.272;9.580;2022-08-30T05:34:37;15.00;99.90
21167;DHT22;10741;52.272;9.580;2022-08-30T05:37:03;15.00;99.90
21167;DHT22;10741;52.272;9.580;2022-08-30T05:39:29;15.10;99.90
21167;DHT22;10741;52.272;9.580;2022-08-30T05:41:56;15.00;99.90
21167;DHT22;10741;52.272;9.580;2022-08-30T05:44:22;15.10;99.90
21167;DHT22;10741;52.272;9.580;2022-08-30T05:46:47;15.10;99.90
21167;DHT22;10741;52.272;9.580;2022-08-30T05:49:14;15.10;99.90
21167;DHT22;10741;52.272;9.580;2022-08-30T05:51:40;15.10;99.90
21167;DHT22;10741;52.272;9.580;2022-08-30T05:54:06;15.20;99.90
21167;DHT22;10741;52.272;9.580;2022-08-30T05:56:34;15.20;99.90
21167;DHT22;10741;52.272;9.580;2022-08-30T05:59:01;15.20;99.90
21167;DHT22;10741;52.272;9.580;2022-08-30T06:01:39;15.20;99.90
21167;DHT22;10741;52.272;9.580;2022-08-30T06:04:07;15.20;99.90
21167;DHT22;10741;52.272;9.580;2022-08-30T06:06:35;15.20;99.90
21167;DHT22;10741;52.272;9.580;2022-08-30T06:09:02;15.30;99.90
21167;DHT22;10741;52.272;9.580;2022-08-30T06:11:28;15.30;99.90
21167;DHT22;10741;52.272;9.580;2022-08-30T06:13:54;15.30;99.90
21167;DHT22;10741;52.272;9.580;2022-08-30T06:16:24;15.30;99.90
21167;DHT22;10741;52.272;9.580;2022-08-30T06:18:52;15.30;99.90
21167;DHT22;10741;52.272;9.580;2022-08-30T06:21:26;15.30;99.90
21167;DHT22;10741;52.272;9.580;2022-08-30T06:23:53;15.40;99.90
21167;DHT22;10741;52.272;9.580;2022-08-30T06:26:20;15.40;99.90
21167;DHT22;10741;52.272;9.580;2022-08-30T06:28:46;15.40;99.90
21167;DHT22;10741;52.272;9.580;2022-08-30T06:31:14;15.50;99.90
21167;DHT22;10741;52.272;9.580;2022-08-30T06:33:40;15.50;99.90
21167;DHT22;10741;52.272;9.580;2022-08-30T06:36:09;15.50;99.90
21167;DHT22;10741;52.272;9.580;2022-08-30T06:38:35;15.50;99.90
21167;DHT22;10741;52.272;9.580;2022-08-30T06:41:09;15.50;99.90
21167;DHT22;10741;52.272;9.580;2022-08-30T06:43:35;15.50;99.90
21167;DHT22;10741;52.272;9.580;2022-08-30T06:46:07;15.60;99.90
21167;DHT22;10741;52.272;9.580;2022-08-30T06:48:34;15.60;99.90
21167;DHT22;10741;52.272;9.580;2022-08-30T06:51:00;15.50;99.90
21167;DHT22;10741;52.272;9.580;2022-08-30T06:53:26;15.60;99.90
21167;DHT22;10741;52.272;9.580;2022-08-30T06:55:59;15.60;99.90
21167;DHT22;10741;52.272;9.580;2022-08-30T06:58:26;15.60;99.90
21167;DHT22;10741;52.272;9.580;2022-08-30T07:00:52;15.50;99.90
21167;DHT22;10741;52.272;9.580;2022-08-30T07:03:18;15.50;99.90
21167;DHT22;10741;52.272;9.580;2022-08-30T07:05:46;15.60;99.90
21167;DHT22;10741;52.272;9.580;2022-08-30T07:08:12;15.60;99.90
21167;DHT22;10741;52.272;9.580;2022-08-30T07:10:39;15.60;99.90
21167;DHT22;10741;52.272;9.580;2022-08-30T07:13:06;15.70;99.90
21167;DHT22;10741;52.272;9.580;2022-08-30T07:15:32;15.70;99.90
21167;DHT22;10741;52.272;9.580;2022-08-30T07:17:58;15.60;99.90
21167;DHT22;10741;52.272;9.580;2022-08-30T07:20:42;15.70;99.90
21167;DHT22;10741;52.272;9.580;2022-08-30T07:23:09;15.90;99.90
21167;DHT22;10741;52.272;9.580;2022-08-30T07:25:36;15.90;99.90
21167;DHT22;10741;52.272;9.580;2022-08-30T07:28:02;16.00;99.90
21167;DHT22;10741;52.272;9.580;2022-08-30T07:30:28;16.00;99.90
21167;DHT22;10741;52.272;9.580;2022-08-30T07:32:56;16.10;99.90
21167;DHT22;10741;52.272;9.580;2022-08-30T07:35:22;16.10;99.90
21167;DHT22;10741;52.272;9.580;2022-08-30T07:37:48;16.10;99.90
21167;DHT22;10741;52.272;9.580;2022-08-30T07:40:14;16.20;99.90
21167;DHT22;10741;52.272;9.580;2022-08-30T07:42:39;16.20;99.90
21167;DHT22;10741;52.272;9.580;2022-08-30T07:45:06;16.20;99.90
21167;DHT22;10741;52.272;9.580;2022-08-30T07:47:33;16.40;99.90
21167;DHT22;10741;52.272;9.580;2022-08-30T07:49:59;16.40;99.90
21167;DHT22;10741;52.272;9.580;2022-08-30T07:52:26;16.40;99.90
21167;DHT22;10741;52.272;9.580;2022-08-30T07:54:54;16.40;99.90
21167;DHT22;10741;52.272;9.580;2022-08-30T07:57:20;16.50;99.90
21167;DHT22;10741;52.272;9.580;2022-08-30T07:59:45;16.50;99.90
21167;DHT22;10741;52.272;9.580;2022-08-30T08:02:11;16.60;99.90
21167;DHT22;10741;52.272;9.580;2022-08-30T08:04:37;16.70;99.90
21167;DHT22;10741;52.272;9.580;2022-08-30T08:07:03;16.70;99.90
21167;DHT22;10741;52.272;9.580;2022-08-30T08:09:29;16.70;99.90
21167;DHT22;10741;52.272;9.580;2022-08-30T08:11:54;16.80;99.90
21167;DHT22;10741;52.272;9.580;2022-08-30T08:14:20;17.00;99.90
21167;DHT22;10741;52.272;9.580;2022-08-30T08:16:48;17.00;99.90
21167;DHT22;10741;52.272;9.580;2022-08-30T08:19:14;17.00;99.90
21167;DHT22;10741;52.272;9.580;2022-08-30T08:21:40;17.10;99.90
21167;DHT22;10741;52.272;9.580;2022-08-30T08:24:06;17.10;99.90
21167;DHT22;10741;52.272;9.580;2022-08-30T08:26:35;17.10;99.90
21167;DHT22;10741;52.272;9.580;2022-08-30T08:29:02;17.20;99.90
21167;DHT22;10741;52.272;9.580;2022-08-30T08:31:28;17.30;99.90
21167;DHT22;10741;52.272;9.580;2022-08-30T08:33:55;17.30;99.90
21167;DHT22;10741;52.272;9.580;2022-08-30T08:36:21;17.30;99.90
21167;DHT22;10741;52.272;9.580;2022-08-30T08:38:46;17.40;99.90
21167;DHT22;10741;52.272;9.580;2022-08-30T08:44:30;17.60;99.90
21167;DHT22;10741;52.272;9.580;2022-08-30T08:47:23;17.60;99.90
21167;DHT22;10741;52.272;9.580;2022-08-30T08:49:52;17.70;99.90
21167;DHT22;10741;52.272;9.580;2022-08-30T08:52:40;17.70;99.90
21167;DHT22;10741;52.272;9.580;2022-08-30T08:55:26;17.70;99.90
21167;DHT22;10741;52.272;9.580;2022-08-30T08:57:55;17.60;99.90
21167;DHT22;10741;52.272;9.580;2022-08-30T09:00:21;17.60;99.90
21167;DHT22;10741;52.272;9.580;2022-08-30T09:02:55;17.60;99.90
21167;DHT22;10741;52.272;9.580;2022-08-30T09:05:23;17.70;99.90
21167;DHT22;10741;52.272;9.580;2022-08-30T09:08:02;17.70;99.90
21167;DHT22;10741;52.272;9.580;2022-08-30T09:10:31;17.80;99.90
21167;DHT22;10741;52.272;9.580;2022-08-30T09:12:58;17.90;99.90
21167;DHT22;10741;52.272;9.580;2022-08-30T09:15:27;18.00;99.90
21167;DHT22;10741;52.272;9.580;2022-08-30T09:17:59;18.10;99.90
21167;DHT22;10741;52.272;9.580;2022-08-30T09:20:30;18.00;99.90
21167;DHT22;10741;52.272;9.580;2022-08-30T09:22:57;18.20;99.90
21167;DHT22;10741;52.272;9.580;2022-08-30T09:25:30;18.20;99.90
21167;DHT22;10741;52.272;9.580;2022-08-30T09:28:11;18.20;99.90
21167;DHT22;10741;52.272;9.580;2022-08-30T09:30:37;18.30;99.90
21167;DHT22;10741;52.272;9.580;2022-08-30T09:33:19;18.40;99.90
21167;DHT22;10741;52.272;9.580;2022-08-30T09:35:47;18.50;99.90
21167;DHT22;10741;52.272;9.580;2022-08-30T09:40:49;18.40;99.90
21167;DHT22;10741;52.272;9.580;2022-08-30T09:45:43;18.40;99.90
21167;DHT22;10741;52.272;9.580;2022-08-30T09:48:32;18.50;99.90
21167;DHT22;10741;52.272;9.580;2022-08-30T09:56:18;18.70;99.90
21167;DHT22;10741;52.272;9.580;2022-08-30T10:06:58;19.30;99.90
21167;DHT22;10741;52.272;9.580;2022-08-30T10:23:32;19.40;99.90
21167;DHT22;10741;52.272;9.580;2022-08-30T10:28:48;19.10;99.90
21167;DHT22;10741;52.272;9.580;2022-08-30T10:34:31;19.40;99.90
21167;DHT22;10741;52.272;9.580;2022-08-30T10:37:10;19.60;99.90
21167;DHT22;10741;52.272;9.580;2022-08-30T10:39:45;19.60;99.90
21167;DHT22;10741;52.272;9.580;2022-08-30T10:42:32;19.70;99.90
21167;DHT22;10741;52.272;9.580;2022-08-30T10:45:06;19.80;99.90
21167;DHT22;10741;52.272;9.580;2022-08-30T10:50:47;19.70;99.90
21167;DHT22;10741;52.272;9.580;2022-08-30T10:53:39;19.70;99.90
21167;DHT22;10741;52.272;9.580;2022-08-30T10:56:10;19.80;99.90
21167;DHT22;10741;52.272;9.580;2022-08-30T10:58:38;19.80;99.90
21167;DHT22;10741;52.272;9.580;2022-08-30T11:04:39;20.30;99.90
21167;DHT22;10741;52.272;9.580;2022-08-30T11:12:40;20.00;99.90
21167;DHT22;10741;52.272;9.580;2022-08-30T11:18:22;19.80;99.90
21167;DHT22;10741;52.272;9.580;2022-08-30T11:20:54;19.90;99.90
21167;DHT22;10741;52.272;9.580;2022-08-30T11:23:39;19.90;99.90
21167;DHT22;10741;52.272;9.580;2022-08-30T11:26:08;20.20;99.90
21167;DHT22;10741;52.272;9.580;2022-08-30T11:33:53;20.90;99.90
21167;DHT22;10741;52.272;9.580;2022-08-30T11:41:38;22.60;99.90
21167;DHT22;10741;52.272;9.580;2022-08-30T11:46:40;23.70;99.90
21167;DHT22;10741;52.272;9.580;2022-08-30T11:55:21;24.60;98.90
21167;DHT22;10741;52.272;9.580;2022-08-30T12:00:37;25.30;97.40
21167;DHT22;10741;52.272;9.580;2022-08-30T12:08:53;25.50;96.00
21167;DHT22;10741;52.272;9.580;2022-08-30T12:16:06;25.70;95.00
21167;DHT22;10741;52.272;9.580;2022-08-30T12:18:44;25.60;95.40
21167;DHT22;10741;52.272;9.580;2022-08-30T12:26:29;26.30;93.40
21167;DHT22;10741;52.272;9.580;2022-08-30T12:29:20;26.20;94.00
21167;DHT22;10741;52.272;9.580;2022-08-30T12:32:00;26.70;94.40
21167;DHT22;10741;52.272;9.580;2022-08-30T12:39:31;27.70;91.20
21167;DHT22;10741;52.272;9.580;2022-08-30T12:44:47;27.10;91.80
21167;DHT22;10741;52.272;9.580;2022-08-30T12:47:17;27.20;92.30
21167;DHT22;10741;52.272;9.580;2022-08-30T12:49:44;28.10;90.30
21167;DHT22;10741;52.272;9.580;2022-08-30T12:52:27;27.60;91.90
21167;DHT22;10741;52.272;9.580;2022-08-30T12:55:20;27.50;90.90
21167;DHT22;10741;52.272;9.580;2022-08-30T12:58:03;28.20;90.40
21167;DHT22;10741;52.272;9.580;2022-08-30T13:00:39;28.00;91.10
21167;DHT22;10741;52.272;9.580;2022-08-30T13:05:52;28.60;87.40
21167;DHT22;10741;52.272;9.580;2022-08-30T13:13:47;28.50;87.60
21167;DHT22;10741;52.272;9.580;2022-08-30T13:18:49;28.20;89.70
21167;DHT22;10741;52.272;9.580;2022-08-30T13:23:51;29.00;84.70
21167;DHT22;10741;52.272;9.580;2022-08-30T13:26:19;29.00;85.20
21167;DHT22;10741;52.272;9.580;2022-08-30T13:28:59;29.10;85.20
21167;DHT22;10741;52.272;9.580;2022-08-30T13:31:26;29.60;82.60
21167;DHT22;10741;52.272;9.580;2022-08-30T13:33:53;29.10;83.30
21167;DHT22;10741;52.272;9.580;2022-08-30T13:36:27;29.20;81.90
21167;DHT22;10741;52.272;9.580;2022-08-30T13:38:53;28.80;79.10
21167;DHT22;10741;52.272;9.580;2022-08-30T13:41:19;28.50;79.20
21167;DHT22;10741;52.272;9.580;2022-08-30T13:43:46;28.40;75.80
21167;DHT22;10741;52.272;9.580;2022-08-30T13:46:13;28.60;75.00
21167;DHT22;10741;52.272;9.580;2022-08-30T13:48:40;28.70;77.80
21167;DHT22;10741;52.272;9.580;2022-08-30T13:51:06;29.10;76.70
21167;DHT22;10741;52.272;9.580;2022-08-30T13:53:32;28.60;76.40
21167;DHT22;10741;52.272;9.580;2022-08-30T13:55:57;29.10;79.40
21167;DHT22;10741;52.272;9.580;2022-08-30T13:58:24;28.60;81.20
21167;DHT22;10741;52.272;9.580;2022-08-30T14:00:50;29.10;78.40
21167;DHT22;10741;52.272;9.580;2022-08-30T14:03:15;29.30;79.20
21167;DHT22;10741;52.272;9.580;2022-08-30T14:05:42;29.10;77.40
21167;DHT22;10741;52.272;9.580;2022-08-30T14:08:10;29.10;79.60
21167;DHT22;10741;52.272;9.580;2022-08-30T14:10:37;29.40;77.80
21167;DHT22;10741;52.272;9.580;2022-08-30T14:13:04;28.90;76.90
21167;DHT22;10741;52.272;9.580;2022-08-30T14:15:31;29.30;78.10
21167;DHT22;10741;52.272;9.580;2022-08-30T14:17:58;29.30;76.70
21167;DHT22;10741;52.272;9.580;2022-08-30T14:20:23;29.10;74.60
21167;DHT22;10741;52.272;9.580;2022-08-30T14:22:49;29.30;75.60
21167;DHT22;10741;52.272;9.580;2022-08-30T14:25:15;29.20;75.40
21167;DHT22;10741;52.272;9.580;2022-08-30T14:27:41;29.30;74.90
21167;DHT22;10741;52.272;9.580;2022-08-30T14:30:07;29.10;73.50
21167;DHT22;10741;52.272;9.580;2022-08-30T14:32:33;28.60;74.60
21167;DHT22;10741;52.272;9.580;2022-08-30T14:34:59;28.50;75.60
21167;DHT22;10741;52.272;9.580;2022-08-30T14:37:24;28.50;75.00
21167;DHT22;10741;52.272;9.580;2022-08-30T14:39:50;27.50;76.90
21167;DHT22;10741;52.272;9.580;2022-08-30T14:42:16;27.40;80.10
21167;DHT22;10741;52.272;9.580;2022-08-30T14:44:42;27.00;80.20
21167;DHT22;10741;52.272;9.580;2022-08-30T14:47:08;26.50;82.70
21167;DHT22;10741;52.272;9.580;2022-08-30T14:49:34;26.10;82.90
21167;DHT22;10741;52.272;9.580;2022-08-30T14:52:00;25.80;85.20
21167;DHT22;10741;52.272;9.580;2022-08-30T14:54:27;25.70;85.80
21167;DHT22;10741;52.272;9.580;2022-08-30T14:56:54;25.40;85.80
21167;DHT22;10741;52.272;9.580;2022-08-30T14:59:21;25.40;86.50
21167;DHT22;10741;52.272;9.580;2022-08-30T15:01:47;25.20;83.80
21167;DHT22;10741;52.272;9.580;2022-08-30T15:04:14;25.00;86.00
21167;DHT22;10741;52.272;9.580;2022-08-30T15:06:42;24.60;87.40
21167;DHT22;10741;52.272;9.580;2022-08-30T15:09:09;24.40;88.50
21167;DHT22;10741;52.272;9.580;2022-08-30T15:11:35;24.10;87.90
21167;DHT22;10741;52.272;9.580;2022-08-30T15:14:03;24.10;86.40
21167;DHT22;10741;52.272;9.580;2022-08-30T15:16:33;24.00;87.00
21167;DHT22;10741;52.272;9.580;2022-08-30T15:19:02;24.00;88.70
21167;DHT22;10741;52.272;9.580;2022-08-30T15:21:31;24.00;89.00
21167;DHT22;10741;52.272;9.580;2022-08-30T15:23:59;23.90;89.50
21167;DHT22;10741;52.272;9.580;2022-08-30T15:26:25;23.80;89.60
21167;DHT22;10741;52.272;9.580;2022-08-30T15:28:51;23.90;87.60
21167;DHT22;10741;52.272;9.580;2022-08-30T15:31:18;23.80;87.80
21167;DHT22;10741;52.272;9.580;2022-08-30T15:33:45;23.80;84.70
21167;DHT22;10741;52.272;9.580;2022-08-30T15:36:11;23.80;87.60
21167;DHT22;10741;52.272;9.580;2022-08-30T15:38:37;23.70;87.70
21167;DHT22;10741;52.272;9.580;2022-08-30T15:41:05;23.70;88.50
21167;DHT22;10741;52.272;9.580;2022-08-30T15:43:32;23.70;86.70
21167;DHT22;10741;52.272;9.580;2022-08-30T15:46:16;23.60;89.20
21167;DHT22;10741;52.272;9.580;2022-08-30T15:48:44;23.60;89.60
21167;DHT22;10741;52.272;9.580;2022-08-30T15:51:10;23.60;88.70
21167;DHT22;10741;52.272;9.580;2022-08-30T15:53:36;23.60;88.10
21167;DHT22;10741;52.272;9.580;2022-08-30T15:56:02;23.60;87.80
21167;DHT22;10741;52.272;9.580;2022-08-30T15:58:28;23.50;89.30
21167;DHT22;10741;52.272;9.580;2022-08-30T16:00:53;23.50;89.00
21167;DHT22;10741;52.272;9.580;2022-08-30T16:03:19;23.40;89.60
21167;DHT22;10741;52.272;9.580;2022-08-30T16:05:45;23.40;88.80
21167;DHT22;10741;52.272;9.580;2022-08-30T16:08:10;23.30;89.20
21167;DHT22;10741;52.272;9.580;2022-08-30T16:10:38;23.30;87.80
21167;DHT22;10741;52.272;9.580;2022-08-30T16:13:04;23.30;86.60
21167;DHT22;10741;52.272;9.580;2022-08-30T16:15:30;23.20;88.00
21167;DHT22;10741;52.272;9.580;2022-08-30T16:17:55;23.20;88.00
21167;DHT22;10741;52.272;9.580;2022-08-30T16:20:21;23.10;88.30
21167;DHT22;10741;52.272;9.580;2022-08-30T16:22:47;23.10;90.30
21167;DHT22;10741;52.272;9.580;2022-08-30T16:25:13;23.10;89.90
21167;DHT22;10741;52.272;9.580;2022-08-30T16:27:39;23.20;89.20
21167;DHT22;10741;52.272;9.580;2022-08-30T16:30:10;23.20;90.10
21167;DHT22;10741;52.272;9.580;2022-08-30T16:32:37;23.30;90.20
21167;DHT22;10741;52.272;9.580;2022-08-30T16:35:04;23.20;89.60
21167;DHT22;10741;52.272;9.580;2022-08-30T16:37:30;23.20;90.30
21167;DHT22;10741;52.272;9.580;2022-08-30T16:39:56;23.10;90.10
21167;DHT22;10741;52.272;9.580;2022-08-30T16:42:22;23.00;90.10
21167;DHT22;10741;52.272;9.580;2022-08-30T16:44:48;23.00;90.20
21167;DHT22;10741;52.272;9.580;2022-08-30T16:47:14;22.90;90.90
21167;DHT22;10741;52.272;9.580;2022-08-30T16:49:40;22.80;91.00
21167;DHT22;10741;52.272;9.580;2022-08-30T16:52:06;22.70;91.10
21167;DHT22;10741;52.272;9.580;2022-08-30T16:54:32;22.60;91.70
21167;DHT22;10741;52.272;9.580;2022-08-30T16:56:58;22.50;91.60
21167;DHT22;10741;52.272;9.580;2022-08-30T16:59:24;22.40;91.70
21167;DHT22;10741;52.272;9.580;2022-08-30T17:01:50;22.30;92.30
21167;DHT22;10741;52.272;9.580;2022-08-30T17:04:16;22.30;92.20
21167;DHT22;10741;52.272;9.580;2022-08-30T17:06:42;22.20;92.20
21167;DHT22;10741;52.272;9.580;2022-08-30T17:09:08;22.10;92.30
21167;DHT22;10741;52.272;9.580;2022-08-30T17:11:36;22.10;92.60
21167;DHT22;10741;52.272;9.580;2022-08-30T17:14:03;22.00;92.50
21167;DHT22;10741;52.272;9.580;2022-08-30T17:16:30;21.90;92.60
21167;DHT22;10741;52.272;9.580;2022-08-30T17:18:57;21.90;92.70
21167;DHT22;10741;52.272;9.580;2022-08-30T17:21:23;21.80;92.70
21167;DHT22;10741;52.272;9.580;2022-08-30T17:23:49;21.70;92.90
21167;DHT22;10741;52.272;9.580;2022-08-30T17:26:16;21.60;93.10
21167;DHT22;10741;52.272;9.580;2022-08-30T17:28:42;21.50;93.20
21167;DHT22;10741;52.272;9.580;2022-08-30T17:31:08;21.40;93.60